createdAt,value
2022-09-07T00:00:37.218Z,74.77
2022-09-07T00:05:48.226Z,74.59
2022-09-07T00:11:01.975Z,74.91
2022-09-07T00:16:06.913Z,75.00
2022-09-07T00:21:10.247Z,74.64
2022-09-07T00:26:15.336Z,74.76
2022-09-07T00:31:22.917Z,74.51
2022-09-07T00:36:24.741Z,74.47
2022-09-07T00:41:28.234Z,74.54
2022-09-07T00:46:34.328Z,74.60
2022-09-07T00:51:43.870Z,74.74
2022-09-07T00:56:47.174Z,74.80
2022-09-07T01:01:49.501Z,74.62
2022-09-07T01:06:54.036Z,74.74
2022-09-07T01:11:59.809Z,74.80
2022-09-07T01:17:49.502Z,74.81
2022-09-07T01:23:03.363Z,74.76
2022-09-07T01:28:24.887Z,74.76
2022-09-07T01:33:47.635Z,74.84
2022-09-07T01:39:02.320Z,74.82
2022-09-07T01:44:21.973Z,74.49
2022-09-07T01:49:29.465Z,74.68
2022-09-07T01:55:13.899Z,74.69
2022-09-07T02:00:19.925Z,74.46
2022-09-07T02:05:27.003Z,74.63
2022-09-07T02:10:39.103Z,74.79
2022-09-07T02:15:52.686Z,74.72
2022-09-07T02:20:58.092Z,74.88
2022-09-07T02:26:07.082Z,74.57
2022-09-07T02:31:09.058Z,74.60
2022-09-07T02:36:13.447Z,74.69
2022-09-07T02:41:35.225Z,74.70
2022-09-07T02:47:05.036Z,74.74
2022-09-07T02:52:43.779Z,74.84
2022-09-07T02:58:19.084Z,74.86
2022-09-07T03:03:41.855Z,74.57
2022-09-07T03:08:55.621Z,74.51
2022-09-07T03:14:26.357Z,74.50
2022-09-07T03:19:28.345Z,74.54
2022-09-07T03:24:30.270Z,74.79
2022-09-07T03:29:32.194Z,74.73
2022-09-07T03:34:34.310Z,74.84
2022-09-07T03:39:36.733Z,74.78
2022-09-07T03:44:38.635Z,74.63
2022-09-07T03:49:40.650Z,74.69
2022-09-07T03:54:42.516Z,74.84
2022-09-07T03:59:45.299Z,74.79
2022-09-07T04:04:47.225Z,74.87
2022-09-07T04:09:51.617Z,75.00
2022-09-07T04:14:53.506Z,74.93
2022-09-07T04:19:55.923Z,74.66
2022-09-07T04:24:57.943Z,74.95
2022-09-07T04:30:00.237Z,74.85
2022-09-07T04:35:02.614Z,74.98
2022-09-07T04:40:05.743Z,74.78
2022-09-07T04:45:08.413Z,74.64
2022-09-07T04:50:10.517Z,75.05
2022-09-07T04:55:12.790Z,74.93
2022-09-07T05:00:15.230Z,74.95
2022-09-07T05:05:17.307Z,75.10
2022-09-07T05:10:19.659Z,75.25
2022-09-07T05:15:21.802Z,75.16
2022-09-07T05:20:24.531Z,75.72
2022-09-07T05:25:29.267Z,75.81
2022-09-07T05:35:59.138Z,76.06
2022-09-07T05:41:01.380Z,76.14
2022-09-07T05:46:03.889Z,76.52
2022-09-07T05:51:07.290Z,76.52
2022-09-07T05:56:09.931Z,76.75
2022-09-07T06:01:13.427Z,76.71
2022-09-07T06:06:19.011Z,76.91
2022-09-07T06:11:23.628Z,77.29
2022-09-07T06:16:26.102Z,77.59
2022-09-07T06:21:28.487Z,77.62
2022-09-07T06:26:31.507Z,78.12
2022-09-07T06:31:34.564Z,78.08
2022-09-07T06:36:36.677Z,78.51
2022-09-07T06:47:05.370Z,78.48
2022-09-07T06:52:07.397Z,79.08
2022-09-07T06:57:09.739Z,78.85
2022-09-07T07:02:15.344Z,79.17
2022-09-07T07:07:17.864Z,79.31
2022-09-07T07:17:20.840Z,79.35
2022-09-07T07:22:45.980Z,79.53
2022-09-07T07:27:48.468Z,79.74
2022-09-07T07:32:50.426Z,80.23
2022-09-07T07:43:15.578Z,80.55
2022-09-07T07:48:17.413Z,80.64
2022-09-07T07:58:46.447Z,80.75
2022-09-07T08:03:49.390Z,81.14
2022-09-07T08:08:51.470Z,81.40
2022-09-07T08:13:55.172Z,80.98
2022-09-07T08:18:58.255Z,81.19
2022-09-07T08:24:00.248Z,81.35
2022-09-07T08:29:02.408Z,81.66
2022-09-07T08:34:04.365Z,81.46
2022-09-07T08:39:06.571Z,81.53
2022-09-07T08:44:38.784Z,81.77
2022-09-07T08:50:01.439Z,81.85
2022-09-07T08:55:11.951Z,81.40
2022-09-07T09:00:17.611Z,81.59
2022-09-07T09:05:28.477Z,81.20
2022-09-07T09:10:45.465Z,81.27
2022-09-07T09:15:52.349Z,81.03
2022-09-07T09:20:56.936Z,81.06
2022-09-07T09:26:16.074Z,81.04
2022-09-07T09:31:20.953Z,81.24
2022-09-07T09:36:26.002Z,81.13
2022-09-07T09:41:37.554Z,80.46
2022-09-07T09:46:39.935Z,80.11
2022-09-07T09:57:16.603Z,79.16
2022-09-07T10:07:55.038Z,79.56
2022-09-07T10:12:57.279Z,79.34
2022-09-07T10:17:59.971Z,79.13
2022-09-07T10:23:03.454Z,79.39
2022-09-07T10:28:14.635Z,79.10
2022-09-07T10:34:25.636Z,78.87
2022-09-07T10:39:14.289Z,78.87
2022-09-07T10:44:36.089Z,78.75
2022-09-07T10:50:25.792Z,77.97
2022-09-07T10:55:34.201Z,78.34
2022-09-07T11:01:04.103Z,77.43
2022-09-07T11:06:15.444Z,77.27
2022-09-07T11:11:20.501Z,77.21
2022-09-07T11:22:01.195Z,76.25
2022-09-07T11:27:12.374Z,75.95
2022-09-07T11:32:29.915Z,75.88
2022-09-07T11:37:55.695Z,75.74
2022-09-07T11:43:21.795Z,76.03
2022-09-07T11:49:10.805Z,75.29
2022-09-07T11:54:37.395Z,75.37
2022-09-07T12:00:11.394Z,75.15
2022-09-07T12:05:41.715Z,74.60
2022-09-07T12:10:46.606Z,74.83
2022-09-07T12:15:59.932Z,74.16
2022-09-07T12:21:01.995Z,74.25
2022-09-07T12:26:35.585Z,74.05
2022-09-07T12:31:58.818Z,74.14
2022-09-07T12:37:12.521Z,74.21
2022-09-07T12:42:37.836Z,74.37
2022-09-07T12:47:40.674Z,74.33
2022-09-07T12:52:53.463Z,74.47
2022-09-07T12:58:10.215Z,74.68
2022-09-07T13:08:57.987Z,75.13
2022-09-07T13:14:08.845Z,75.63
2022-09-07T13:19:48.939Z,75.93
2022-09-07T13:24:55.723Z,76.09
2022-09-07T13:30:01.264Z,76.84
2022-09-07T13:35:05.557Z,77.32
2022-09-07T13:40:11.566Z,77.25
2022-09-07T13:45:33.315Z,77.20
2022-09-07T13:51:17.437Z,76.74
2022-09-07T13:56:45.571Z,77.07
2022-09-07T14:01:49.678Z,76.90
2022-09-07T14:07:03.838Z,76.95
2022-09-07T14:12:20.416Z,77.14
2022-09-07T14:17:22.589Z,77.31
2022-09-07T14:22:35.316Z,78.53
2022-09-07T14:27:42.942Z,78.10
2022-09-07T14:32:49.803Z,78.35
2022-09-07T14:37:53.254Z,78.63
2022-09-07T14:42:55.936Z,78.61
2022-09-07T14:47:58.015Z,78.59
2022-09-07T14:58:32.293Z,78.09
2022-09-07T15:03:55.762Z,77.84
2022-09-07T15:08:57.912Z,77.89
2022-09-07T15:14:02.207Z,77.74
2022-09-07T15:19:33.044Z,77.73
2022-09-07T15:24:35.629Z,77.54
2022-09-07T15:29:37.477Z,77.46
2022-09-07T15:34:39.279Z,76.95
2022-09-07T15:39:41.169Z,76.98
2022-09-07T15:44:43.042Z,77.10
2022-09-07T15:49:50.312Z,76.93
2022-09-07T15:54:53.366Z,76.81
2022-09-07T15:59:55.185Z,76.83
2022-09-07T16:04:57.098Z,76.77
2022-09-07T16:10:02.531Z,76.40
2022-09-07T16:15:06.019Z,76.30
2022-09-07T16:20:08.353Z,75.98
2022-09-07T16:25:10.176Z,75.68
2022-09-07T16:30:13.408Z,75.37
2022-09-07T16:35:15.327Z,74.79
2022-09-07T16:40:17.241Z,74.81
2022-09-07T16:50:56.578Z,73.91
2022-09-07T16:56:05.163Z,73.79
2022-09-07T17:01:09.537Z,73.60
2022-09-07T17:06:13.433Z,73.87
2022-09-07T17:11:18.324Z,73.62
2022-09-07T17:16:29.908Z,73.66
2022-09-07T17:21:34.314Z,74.14
2022-09-07T17:26:36.238Z,74.13
2022-09-07T17:37:01.102Z,74.24
2022-09-07T17:42:03.226Z,74.11
2022-09-07T17:47:05.306Z,74.18
2022-09-07T17:52:07.115Z,74.28
2022-09-07T17:57:08.934Z,74.43
2022-09-07T18:02:13.802Z,74.37
2022-09-07T18:07:15.705Z,74.68
2022-09-07T18:12:17.708Z,74.76
2022-09-07T18:17:19.583Z,74.40
2022-09-07T18:22:21.388Z,74.58
2022-09-07T18:27:23.126Z,74.57
2022-09-07T18:32:25.047Z,74.33
2022-09-07T18:37:26.821Z,74.79
2022-09-07T18:42:29.963Z,74.84
2022-09-07T18:47:31.787Z,74.78
2022-09-07T18:57:56.091Z,75.18
2022-09-07T19:02:57.811Z,75.37
2022-09-07T19:08:02.648Z,75.48
2022-09-07T19:13:04.722Z,75.16
2022-09-07T19:18:07.852Z,75.43
2022-09-07T19:23:09.811Z,75.14
2022-09-07T19:28:11.651Z,75.31
2022-09-07T19:33:13.661Z,75.55
2022-09-07T19:38:15.427Z,75.49
2022-09-07T19:43:17.142Z,75.26
2022-09-07T19:48:18.917Z,75.38
2022-09-07T19:53:20.921Z,75.71
2022-09-07T19:58:22.711Z,75.69
2022-09-07T20:03:24.773Z,75.52
2022-09-07T20:08:26.618Z,75.59
2022-09-07T20:13:28.481Z,75.92
2022-09-07T20:18:31.024Z,75.52
2022-09-07T20:23:34.480Z,75.59
2022-09-07T20:28:37.088Z,75.70
2022-09-07T20:33:39.511Z,76.01
2022-09-07T20:38:53.271Z,76.04
2022-09-07T20:43:56.720Z,75.80
2022-09-07T20:48:58.871Z,75.87
2022-09-07T20:54:00.747Z,75.84
2022-09-07T20:59:03.248Z,75.68
2022-09-07T21:04:06.357Z,75.88
2022-09-07T21:09:08.372Z,75.75
2022-09-07T21:14:13.850Z,76.02
2022-09-07T21:19:15.824Z,75.79
2022-09-07T21:24:20.937Z,75.95
2022-09-07T21:29:24.767Z,76.02
2022-09-07T21:34:26.603Z,75.87
2022-09-07T21:39:28.485Z,76.20
2022-09-07T21:44:30.542Z,76.20
2022-09-07T21:49:32.467Z,76.22
2022-09-07T21:54:34.518Z,75.92
2022-09-07T21:59:36.464Z,76.14
2022-09-07T22:04:38.320Z,75.92
2022-09-07T22:09:40.191Z,75.99
2022-09-07T22:14:44.048Z,75.95
2022-09-07T22:19:45.947Z,75.81
2022-09-07T22:24:47.958Z,75.93
2022-09-07T22:29:49.929Z,75.66
2022-09-07T22:34:51.852Z,75.80
2022-09-07T22:39:54.124Z,75.89
2022-09-07T22:44:56.299Z,75.52
2022-09-07T22:49:58.492Z,75.93
2022-09-07T22:55:00.279Z,75.92
2022-09-07T23:00:02.394Z,75.87
2022-09-07T23:05:04.294Z,75.70
2022-09-07T23:10:06.817Z,76.07
2022-09-07T23:15:08.964Z,76.11
2022-09-07T23:20:10.805Z,76.19
2022-09-07T23:25:13.147Z,76.25
2022-09-07T23:30:15.033Z,76.11
2022-09-07T23:35:16.875Z,76.32
2022-09-07T23:40:19.250Z,76.14
2022-09-07T23:45:21.057Z,76.20
2022-09-07T23:50:23.054Z,76.47
2022-09-07T23:55:25.002Z,76.16
